createdAt,value
2023-12-08T00:00:48.983Z,1.60
2023-12-08T00:03:15.566Z,1.61
2023-12-08T00:05:42.251Z,1.63
2023-12-08T00:08:08.826Z,1.62
2023-12-08T00:10:35.381Z,1.64
2023-12-08T00:13:01.929Z,1.63
2023-12-08T00:15:28.526Z,1.64
2023-12-08T00:17:55.217Z,1.65
2023-12-08T00:20:21.932Z,1.66
2023-12-08T00:22:49.025Z,1.65
2023-12-08T00:25:16.337Z,1.66
2023-12-08T00:27:43.470Z,1.67
2023-12-08T00:30:10.411Z,1.67
2023-12-08T00:32:37.188Z,1.69
2023-12-08T00:35:03.978Z,1.69
2023-12-08T00:37:30.569Z,1.69
2023-12-08T00:39:57.235Z,1.68
2023-12-08T00:42:23.770Z,1.69
2023-12-08T00:44:50.352Z,1.69
2023-12-08T00:47:17.135Z,1.68
2023-12-08T00:49:43.813Z,1.69
2023-12-08T00:52:10.420Z,1.68
2023-12-08T00:54:36.954Z,1.67
2023-12-08T00:57:03.855Z,1.67
2023-12-08T00:59:30.678Z,1.66
2023-12-08T01:01:57.430Z,1.66
2023-12-08T01:04:23.977Z,1.66
2023-12-08T01:06:53.219Z,1.66
2023-12-08T01:09:19.748Z,1.66
2023-12-08T01:11:46.449Z,1.67
2023-12-08T01:14:12.975Z,1.69
2023-12-08T01:16:41.720Z,1.71
2023-12-08T01:19:09.550Z,1.72
2023-12-08T01:21:40.481Z,1.73
2023-12-08T01:24:07.439Z,1.74
2023-12-08T01:26:34.207Z,1.74
2023-12-08T01:29:00.934Z,1.74
2023-12-08T01:31:27.512Z,1.75
2023-12-08T01:33:54.336Z,1.76
2023-12-08T01:36:39.607Z,1.75
2023-12-08T01:39:07.614Z,1.77
2023-12-08T01:41:34.424Z,1.75
2023-12-08T01:44:01.263Z,1.77
2023-12-08T01:46:27.920Z,1.76
2023-12-08T01:48:54.721Z,1.77
2023-12-08T01:51:22.754Z,1.76
2023-12-08T01:53:49.967Z,1.79
2023-12-08T01:56:17.010Z,1.81
2023-12-08T01:58:44.225Z,1.82
2023-12-08T02:01:11.858Z,1.81
2023-12-08T02:03:41.056Z,1.82
2023-12-08T02:06:08.077Z,1.82
2023-12-08T02:08:34.779Z,1.84
2023-12-08T02:11:01.379Z,1.84
2023-12-08T02:13:27.924Z,1.86
2023-12-08T02:16:00.259Z,1.83
2023-12-08T02:18:27.174Z,1.83
2023-12-08T02:20:53.907Z,1.84
2023-12-08T02:23:20.392Z,1.86
2023-12-08T02:25:47.083Z,1.87
2023-12-08T02:28:13.618Z,1.87
2023-12-08T02:30:40.097Z,1.88
2023-12-08T02:33:13.298Z,1.89
2023-12-08T02:35:42.228Z,1.88
2023-12-08T02:38:11.134Z,1.90
2023-12-08T02:40:37.885Z,1.90
2023-12-08T02:43:04.770Z,1.88
2023-12-08T02:45:31.360Z,1.89
2023-12-08T02:47:58.308Z,1.87
2023-12-08T02:50:25.147Z,1.87
2023-12-08T02:52:52.654Z,1.86
2023-12-08T02:55:19.446Z,1.83
2023-12-08T02:57:46.002Z,1.82
2023-12-08T03:00:13.175Z,1.83
2023-12-08T03:02:39.898Z,1.82
2023-12-08T03:05:06.990Z,1.81
2023-12-08T03:07:33.460Z,1.79
2023-12-08T03:10:00.099Z,1.79
2023-12-08T03:12:26.847Z,1.77
2023-12-08T03:14:53.487Z,1.77
2023-12-08T03:17:20.056Z,1.75
2023-12-08T03:19:46.596Z,1.75
2023-12-08T03:22:13.833Z,1.74
2023-12-08T03:24:40.315Z,1.74
2023-12-08T03:27:07.228Z,1.74
2023-12-08T03:29:33.811Z,1.73
2023-12-08T03:32:00.330Z,1.73
2023-12-08T03:34:27.122Z,1.72
2023-12-08T03:36:53.645Z,1.71
2023-12-08T03:39:20.225Z,1.71
2023-12-08T03:41:46.829Z,1.69
2023-12-08T03:44:14.101Z,1.68
2023-12-08T03:46:43.521Z,1.71
2023-12-08T03:49:10.432Z,1.68
2023-12-08T03:51:37.093Z,1.68
2023-12-08T03:54:03.798Z,1.67
2023-12-08T03:56:30.448Z,1.66
2023-12-08T03:58:57.035Z,1.67
2023-12-08T04:01:23.580Z,1.68
2023-12-08T04:03:50.162Z,1.66
2023-12-08T04:06:16.884Z,1.66
2023-12-08T04:08:43.528Z,1.67
2023-12-08T04:11:10.741Z,1.64
2023-12-08T04:13:39.488Z,1.68
2023-12-08T04:16:06.259Z,1.68
2023-12-08T04:18:32.910Z,1.69
2023-12-08T04:20:59.467Z,1.68
2023-12-08T04:23:26.278Z,1.68
2023-12-08T04:25:54.644Z,1.68
2023-12-08T04:28:22.041Z,1.69
2023-12-08T04:30:48.537Z,1.67
2023-12-08T04:33:15.303Z,1.69
2023-12-08T04:35:41.854Z,1.68
2023-12-08T04:38:08.357Z,1.68
2023-12-08T04:40:34.871Z,1.68
2023-12-08T04:43:01.428Z,1.68
2023-12-08T04:45:27.965Z,1.67
2023-12-08T04:47:54.622Z,1.67
2023-12-08T04:50:21.159Z,1.65
2023-12-08T04:52:47.607Z,1.67
2023-12-08T04:55:14.280Z,1.66
2023-12-08T04:57:40.814Z,1.66
2023-12-08T05:00:08.013Z,1.66
2023-12-08T05:02:34.592Z,1.67
2023-12-08T05:05:01.700Z,1.69
2023-12-08T05:07:29.850Z,1.68
2023-12-08T05:09:56.364Z,1.69
2023-12-08T05:12:23.011Z,1.72
2023-12-08T05:14:49.597Z,1.74
2023-12-08T05:17:16.360Z,1.73
2023-12-08T05:19:42.926Z,1.74
2023-12-08T05:22:09.436Z,1.73
2023-12-08T05:24:35.952Z,1.73
2023-12-08T05:27:03.637Z,1.74
2023-12-08T05:29:30.642Z,1.75
2023-12-08T05:31:57.587Z,1.74
2023-12-08T05:34:24.232Z,1.74
2023-12-08T05:36:50.863Z,1.76
2023-12-08T05:39:17.671Z,1.76
2023-12-08T05:41:44.509Z,1.75
2023-12-08T05:44:11.060Z,1.77
2023-12-08T05:46:37.619Z,1.78
2023-12-08T05:49:04.321Z,1.79
2023-12-08T05:51:30.872Z,1.80
2023-12-08T05:53:57.548Z,1.79
2023-12-08T05:56:24.569Z,1.80
2023-12-08T05:58:51.062Z,1.83
2023-12-08T06:01:17.656Z,1.82
2023-12-08T06:03:44.153Z,1.82
2023-12-08T06:06:10.759Z,1.83
2023-12-08T06:08:37.804Z,1.83
2023-12-08T06:11:04.741Z,1.84
2023-12-08T06:13:31.836Z,1.84
2023-12-08T06:15:58.449Z,1.86
2023-12-08T06:18:25.400Z,1.85
2023-12-08T06:20:52.473Z,1.86
2023-12-08T06:23:19.012Z,1.87
2023-12-08T06:25:45.633Z,1.88
2023-12-08T06:28:12.292Z,1.89
2023-12-08T06:30:38.852Z,1.90
2023-12-08T06:33:05.548Z,1.89
2023-12-08T06:35:32.065Z,1.90
2023-12-08T06:37:58.589Z,1.91
2023-12-08T06:40:25.213Z,1.92
2023-12-08T06:42:51.785Z,1.93
2023-12-08T06:45:18.288Z,1.94
2023-12-08T06:47:44.958Z,1.97
2023-12-08T06:50:11.616Z,1.94
2023-12-08T06:52:38.165Z,1.94
2023-12-08T06:55:05.054Z,1.97
2023-12-08T06:57:31.763Z,1.97
2023-12-08T06:59:58.914Z,1.99
2023-12-08T07:02:27.174Z,2.00
2023-12-08T07:04:53.967Z,2.01
2023-12-08T07:07:21.195Z,2.01
2023-12-08T07:09:47.754Z,2.04
2023-12-08T07:12:14.407Z,2.04
2023-12-08T07:14:40.973Z,2.06
2023-12-08T07:17:07.579Z,2.07
2023-12-08T07:19:34.327Z,2.08
2023-12-08T07:22:00.920Z,2.08
2023-12-08T07:24:27.420Z,2.08
2023-12-08T07:26:56.052Z,2.09
2023-12-08T07:29:24.477Z,2.10
2023-12-08T07:31:51.051Z,2.10
2023-12-08T07:34:17.801Z,2.12
2023-12-08T07:36:44.299Z,2.12
2023-12-08T07:39:11.522Z,2.12
2023-12-08T07:41:38.344Z,2.13
2023-12-08T07:44:05.041Z,2.15
2023-12-08T07:46:31.840Z,2.16
2023-12-08T07:48:59.398Z,2.17
2023-12-08T07:51:26.240Z,2.18
2023-12-08T07:53:53.272Z,2.20
2023-12-08T07:56:19.893Z,2.21
2023-12-08T07:58:46.421Z,2.21
2023-12-08T08:01:13.313Z,2.22
2023-12-08T08:03:39.942Z,2.23
2023-12-08T08:06:06.970Z,2.25
2023-12-08T08:08:34.325Z,2.26
2023-12-08T08:11:00.824Z,2.27
2023-12-08T08:13:28.499Z,2.28
2023-12-08T08:15:54.992Z,2.28
2023-12-08T08:18:21.663Z,2.29
2023-12-08T08:20:48.431Z,2.31
2023-12-08T08:23:14.932Z,2.32
2023-12-08T08:25:41.594Z,2.32
2023-12-08T08:28:08.369Z,2.32
2023-12-08T08:30:35.306Z,2.35
2023-12-08T08:33:02.057Z,2.36
2023-12-08T08:35:28.716Z,2.37
2023-12-08T08:37:55.268Z,2.37
2023-12-08T08:40:21.809Z,2.38
2023-12-08T08:42:48.398Z,2.39
2023-12-08T08:45:15.048Z,2.41
2023-12-08T08:47:41.941Z,2.44
2023-12-08T08:50:09.023Z,2.45
2023-12-08T08:52:36.730Z,2.47
2023-12-08T08:55:04.999Z,2.48
2023-12-08T08:57:32.012Z,2.51
2023-12-08T08:59:58.677Z,2.53
2023-12-08T09:02:26.294Z,2.54
2023-12-08T09:04:53.163Z,2.57
2023-12-08T09:07:19.851Z,2.58
2023-12-08T09:09:47.165Z,2.61
2023-12-08T09:12:14.598Z,2.65
2023-12-08T09:14:41.263Z,2.65
2023-12-08T09:17:07.837Z,2.69
2023-12-08T09:19:36.341Z,2.71
2023-12-08T09:22:02.927Z,2.72
2023-12-08T09:24:29.424Z,2.76
2023-12-08T09:26:55.977Z,2.77
2023-12-08T09:29:22.687Z,2.79
2023-12-08T09:31:50.106Z,2.81
2023-12-08T09:37:24.249Z,2.83
2023-12-08T09:39:30.571Z,2.88
2023-12-08T09:42:01.852Z,2.91
2023-12-08T09:44:29.354Z,2.93
2023-12-08T09:46:57.862Z,2.95
2023-12-08T09:49:29.753Z,2.96
2023-12-08T09:51:56.931Z,2.97
2023-12-08T09:54:24.669Z,2.99
2023-12-08T09:56:55.747Z,3.01
2023-12-08T09:59:30.431Z,3.04
2023-12-08T10:01:57.653Z,3.07
2023-12-08T10:04:27.503Z,3.10
2023-12-08T10:06:57.579Z,3.13
2023-12-08T10:09:24.207Z,3.14
2023-12-08T10:11:51.680Z,3.15
2023-12-08T10:14:19.851Z,3.17
2023-12-08T10:16:48.464Z,3.20
2023-12-08T10:19:14.970Z,3.23
2023-12-08T10:21:41.656Z,3.22
2023-12-08T10:24:11.162Z,3.23
2023-12-08T10:26:37.794Z,3.27
2023-12-08T10:29:04.382Z,3.27
2023-12-08T10:31:31.175Z,3.31
2023-12-08T10:33:58.216Z,3.37
2023-12-08T10:36:25.661Z,3.42
2023-12-08T10:38:53.455Z,3.44
2023-12-08T10:41:20.529Z,3.49
2023-12-08T10:43:47.053Z,3.50
2023-12-08T10:46:13.884Z,3.55
2023-12-08T10:48:42.063Z,3.55
2023-12-08T10:51:15.041Z,3.54
2023-12-08T10:53:45.384Z,3.58
2023-12-08T10:56:16.786Z,3.59
2023-12-08T10:58:45.793Z,3.62
2023-12-08T11:01:15.640Z,3.65
2023-12-08T11:03:51.969Z,3.67
2023-12-08T11:06:32.278Z,3.69
2023-12-08T11:09:02.359Z,3.73
2023-12-08T11:11:33.508Z,3.74
2023-12-08T11:14:13.425Z,3.81
2023-12-08T11:16:43.548Z,3.87
2023-12-08T11:19:12.735Z,3.91
2023-12-08T11:21:39.452Z,3.98
2023-12-08T11:24:09.334Z,4.02
2023-12-08T11:26:41.978Z,4.05
2023-12-08T11:29:36.316Z,4.06
2023-12-08T11:32:21.270Z,4.09
2023-12-08T11:34:56.917Z,4.12
2023-12-08T11:37:23.993Z,4.14
2023-12-08T11:39:51.143Z,4.20
2023-12-08T11:42:21.938Z,4.25
2023-12-08T11:44:49.913Z,4.29
2023-12-08T11:47:22.529Z,4.32
2023-12-08T11:49:50.320Z,4.35
2023-12-08T11:52:19.502Z,4.36
2023-12-08T11:55:17.704Z,4.36
2023-12-08T11:57:49.920Z,4.36
2023-12-08T12:00:21.644Z,4.42
2023-12-08T12:02:49.883Z,4.46
2023-12-08T12:07:49.718Z,4.53
2023-12-08T12:10:18.456Z,4.57
2023-12-08T12:12:56.316Z,4.59
2023-12-08T12:15:26.448Z,4.60
2023-12-08T12:17:53.648Z,4.63
2023-12-08T12:20:20.429Z,4.66
2023-12-08T12:22:46.992Z,4.68
2023-12-08T12:25:13.534Z,4.74
2023-12-08T12:27:48.480Z,4.78
2023-12-08T12:30:16.925Z,4.82
2023-12-08T12:32:45.757Z,4.82
2023-12-08T12:35:12.468Z,4.87
2023-12-08T12:37:39.005Z,4.95
2023-12-08T12:40:10.343Z,5.00
2023-12-08T12:42:43.905Z,5.07
2023-12-08T12:45:27.080Z,5.11
2023-12-08T12:48:11.029Z,5.09
2023-12-08T12:50:53.116Z,5.14
2023-12-08T12:53:19.890Z,5.16
2023-12-08T12:55:47.483Z,5.21
2023-12-08T12:58:21.496Z,5.28
2023-12-08T13:00:48.826Z,5.31
2023-12-08T13:03:21.048Z,5.35
2023-12-08T13:05:57.946Z,5.37
2023-12-08T13:08:25.123Z,5.39
2023-12-08T13:10:52.977Z,5.40
2023-12-08T13:13:19.635Z,5.44
2023-12-08T13:15:46.886Z,5.45
2023-12-08T13:18:14.102Z,5.45
2023-12-08T13:20:41.290Z,5.45
2023-12-08T13:23:08.427Z,5.46
2023-12-08T13:25:34.863Z,5.52
2023-12-08T13:28:01.339Z,5.54
2023-12-08T13:30:28.019Z,5.55
2023-12-08T13:32:56.522Z,5.56
2023-12-08T13:35:23.615Z,5.57
2023-12-08T13:37:50.602Z,5.60
2023-12-08T13:40:17.222Z,5.63
2023-12-08T13:42:44.406Z,5.66
2023-12-08T13:45:11.176Z,5.70
2023-12-08T13:47:37.950Z,5.76
2023-12-08T13:50:04.962Z,5.79
2023-12-08T13:52:31.578Z,5.81
2023-12-08T13:54:58.470Z,5.86
2023-12-08T13:57:25.589Z,5.87
2023-12-08T13:59:53.271Z,5.86
2023-12-08T14:02:20.257Z,5.89
2023-12-08T14:04:46.871Z,5.97
2023-12-08T14:07:13.750Z,6.00
2023-12-08T14:09:42.914Z,6.00
2023-12-08T14:12:10.601Z,5.98
2023-12-08T14:14:37.577Z,6.00
2023-12-08T14:17:04.346Z,6.04
2023-12-08T14:19:31.016Z,6.09
2023-12-08T14:21:57.697Z,6.11
2023-12-08T14:24:24.587Z,6.11
2023-12-08T14:26:51.222Z,6.14
2023-12-08T14:29:18.122Z,6.20
2023-12-08T14:31:44.646Z,6.20
2023-12-08T14:34:11.584Z,6.22
2023-12-08T14:36:38.307Z,6.26
2023-12-08T14:39:05.093Z,6.20
2023-12-08T14:41:31.977Z,6.20
2023-12-08T14:43:58.928Z,6.23
2023-12-08T14:46:25.580Z,6.20
2023-12-08T14:48:52.979Z,6.20
2023-12-08T14:51:23.190Z,6.21
2023-12-08T14:53:50.568Z,6.26
2023-12-08T14:56:18.303Z,6.28
2023-12-08T14:58:45.710Z,6.33
2023-12-08T15:01:16.790Z,6.36
2023-12-08T15:03:44.587Z,6.40
2023-12-08T15:06:12.709Z,6.46
2023-12-08T15:08:39.238Z,6.45
2023-12-08T15:11:05.784Z,6.42
2023-12-08T15:13:32.292Z,6.46
2023-12-08T15:15:58.997Z,6.46
2023-12-08T15:18:25.743Z,6.46
2023-12-08T15:20:54.841Z,6.45
2023-12-08T15:23:26.138Z,6.48
2023-12-08T15:25:54.840Z,6.51
2023-12-08T15:28:21.385Z,6.49
2023-12-08T15:30:47.827Z,6.47
2023-12-08T15:33:14.610Z,6.48
2023-12-08T15:35:41.677Z,6.49
2023-12-08T15:38:10.573Z,6.51
2023-12-08T15:40:37.662Z,6.47
2023-12-08T15:43:04.402Z,6.47
2023-12-08T15:45:31.017Z,6.48
2023-12-08T15:47:57.813Z,6.45
2023-12-08T15:50:24.510Z,6.44
2023-12-08T15:52:51.008Z,6.42
2023-12-08T15:55:17.553Z,6.42
2023-12-08T15:57:44.150Z,6.42
2023-12-08T16:00:11.521Z,6.48
2023-12-08T16:02:38.038Z,6.49
2023-12-08T16:05:05.786Z,6.50
2023-12-08T16:07:32.431Z,6.50
2023-12-08T16:09:59.720Z,6.47
2023-12-08T16:12:27.025Z,6.48
2023-12-08T16:14:53.807Z,6.50
2023-12-08T16:17:21.540Z,6.50
2023-12-08T16:19:48.283Z,6.51
2023-12-08T16:22:16.198Z,6.54
2023-12-08T16:24:47.951Z,6.56
2023-12-08T16:27:15.203Z,6.53
2023-12-08T16:29:45.618Z,6.59
2023-12-08T16:32:12.845Z,6.60
2023-12-08T16:34:39.386Z,6.60
2023-12-08T16:37:06.036Z,6.63
2023-12-08T16:39:33.256Z,6.66
2023-12-08T16:41:59.845Z,6.66
2023-12-08T16:44:26.452Z,6.69
2023-12-08T16:46:52.954Z,6.69
2023-12-08T16:49:19.644Z,6.69
2023-12-08T16:51:46.337Z,6.66
2023-12-08T16:54:12.814Z,6.69
2023-12-08T16:56:39.568Z,6.71
2023-12-08T16:59:06.052Z,6.72
2023-12-08T17:01:34.276Z,6.73
2023-12-08T17:04:00.992Z,6.74
2023-12-08T17:06:28.326Z,6.76
2023-12-08T17:08:55.045Z,6.76
2023-12-08T17:11:21.809Z,6.80
2023-12-08T17:13:48.332Z,6.77
2023-12-08T17:16:14.972Z,6.82
2023-12-08T17:18:42.306Z,6.81
2023-12-08T17:21:09.088Z,6.80
2023-12-08T17:23:35.699Z,6.78
2023-12-08T17:26:02.211Z,6.78
2023-12-08T17:28:28.781Z,6.81
2023-12-08T17:30:55.311Z,6.82
2023-12-08T17:33:22.058Z,6.85
2023-12-08T17:35:49.280Z,6.86
2023-12-08T17:38:17.078Z,6.85
2023-12-08T17:40:44.566Z,6.88
2023-12-08T17:43:12.122Z,6.91
2023-12-08T17:45:44.842Z,6.92
2023-12-08T17:48:11.699Z,6.91
2023-12-08T17:50:38.235Z,6.92
2023-12-08T17:53:04.708Z,6.90
2023-12-08T17:55:31.279Z,6.91
2023-12-08T17:57:57.800Z,6.90
2023-12-08T18:00:24.634Z,6.87
2023-12-08T18:02:56.016Z,6.86
2023-12-08T18:05:22.848Z,6.82
2023-12-08T18:07:49.819Z,6.80
2023-12-08T18:10:16.653Z,6.81
2023-12-08T18:12:43.227Z,6.84
2023-12-08T18:15:10.523Z,6.85
2023-12-08T18:17:40.022Z,6.83
2023-12-08T18:20:07.813Z,6.85
2023-12-08T18:22:35.219Z,6.85
2023-12-08T18:25:01.743Z,6.84
2023-12-08T18:27:39.732Z,6.83
2023-12-08T18:30:15.666Z,6.83
2023-12-08T18:32:43.257Z,6.88
2023-12-08T18:35:09.906Z,6.91
2023-12-08T18:37:36.411Z,6.89
2023-12-08T18:40:04.434Z,6.89
2023-12-08T18:42:31.289Z,6.89
2023-12-08T18:44:58.197Z,6.91
2023-12-08T18:47:24.699Z,6.94
2023-12-08T18:49:51.682Z,6.94
2023-12-08T18:52:18.255Z,6.96
2023-12-08T18:54:44.866Z,6.99
2023-12-08T18:57:11.718Z,7.00
2023-12-08T18:59:39.484Z,7.01
2023-12-08T19:02:06.629Z,7.04
2023-12-08T19:04:34.849Z,7.04
2023-12-08T19:07:05.001Z,7.05
2023-12-08T19:09:31.629Z,7.05
2023-12-08T19:11:59.457Z,7.03
2023-12-08T19:14:27.619Z,7.05
2023-12-08T19:16:54.168Z,7.05
2023-12-08T19:19:22.074Z,7.05
2023-12-08T19:21:48.633Z,7.07
2023-12-08T19:24:15.213Z,7.06
2023-12-08T19:26:42.188Z,7.05
2023-12-08T19:29:08.703Z,7.04
2023-12-08T19:31:35.706Z,7.04
2023-12-08T19:34:02.303Z,7.02
2023-12-08T19:36:29.296Z,7.05
2023-12-08T19:39:00.630Z,7.03
2023-12-08T19:41:27.947Z,7.03
2023-12-08T19:43:54.493Z,7.03
2023-12-08T19:46:21.056Z,7.02
2023-12-08T19:48:47.767Z,7.01
2023-12-08T19:51:14.698Z,7.00
2023-12-08T19:53:42.048Z,7.02
2023-12-08T19:56:08.833Z,7.01
2023-12-08T19:58:35.307Z,7.01
2023-12-08T20:01:01.887Z,7.00
2023-12-08T20:03:28.658Z,7.02
2023-12-08T20:05:56.631Z,6.99
2023-12-08T20:08:23.247Z,6.98
2023-12-08T20:10:50.023Z,6.95
2023-12-08T20:13:16.539Z,6.94
2023-12-08T20:15:45.603Z,6.93
2023-12-08T20:18:12.481Z,6.92
2023-12-08T20:20:39.825Z,6.89
2023-12-08T20:23:06.773Z,6.88
2023-12-08T20:25:33.291Z,6.86
2023-12-08T20:28:00.005Z,6.84
2023-12-08T20:30:27.068Z,6.81
2023-12-08T20:32:56.925Z,6.83
2023-12-08T20:35:23.643Z,6.78
2023-12-08T20:37:50.123Z,6.80
2023-12-08T20:40:16.837Z,6.80
2023-12-08T20:42:43.436Z,6.77
2023-12-08T20:45:10.672Z,6.77
2023-12-08T20:47:37.292Z,6.78
2023-12-08T20:50:04.050Z,6.78
2023-12-08T20:52:30.550Z,6.78
2023-12-08T20:54:57.030Z,6.78
2023-12-08T20:57:23.646Z,6.77
2023-12-08T20:59:50.303Z,6.76
2023-12-08T21:02:16.970Z,6.74
2023-12-08T21:04:43.523Z,6.72
2023-12-08T21:07:10.247Z,6.73
2023-12-08T21:09:37.368Z,6.73
2023-12-08T21:12:04.588Z,6.74
2023-12-08T21:14:31.125Z,6.73
2023-12-08T21:16:57.643Z,6.71
2023-12-08T21:19:24.329Z,6.73
2023-12-08T21:21:51.011Z,6.74
2023-12-08T21:24:17.612Z,6.72
2023-12-08T21:26:44.383Z,6.71
2023-12-08T21:29:11.088Z,6.67
2023-12-08T21:31:37.543Z,6.66
2023-12-08T21:34:04.116Z,6.62
2023-12-08T21:36:33.319Z,6.61
2023-12-08T21:39:00.559Z,6.62
2023-12-08T21:41:27.102Z,6.61
2023-12-08T21:43:53.896Z,6.60
2023-12-08T21:46:20.420Z,6.59
2023-12-08T21:48:47.075Z,6.57
2023-12-08T21:51:13.641Z,6.56
2023-12-08T21:53:40.775Z,6.55
2023-12-08T21:56:07.672Z,6.60
2023-12-08T21:58:34.265Z,6.62
2023-12-08T22:01:03.023Z,6.60
2023-12-08T22:03:31.491Z,6.58
2023-12-08T22:05:58.364Z,6.58
2023-12-08T22:08:24.780Z,6.54
2023-12-08T22:10:51.354Z,6.54
2023-12-08T22:13:17.852Z,6.56
2023-12-08T22:15:47.390Z,6.53
2023-12-08T22:18:13.992Z,6.52
2023-12-08T22:20:40.860Z,6.51
2023-12-08T22:23:07.399Z,6.50
2023-12-08T22:25:36.014Z,6.51
2023-12-08T22:28:02.845Z,6.52
2023-12-08T22:30:29.413Z,6.52
2023-12-08T22:32:56.110Z,6.51
2023-12-08T22:35:25.155Z,6.51
2023-12-08T22:37:51.584Z,6.51
2023-12-08T22:40:18.190Z,6.51
2023-12-08T22:42:44.676Z,6.50
2023-12-08T22:45:11.243Z,6.50
2023-12-08T22:47:37.727Z,6.50
2023-12-08T22:50:04.972Z,6.50
2023-12-08T22:52:32.019Z,6.49
2023-12-08T22:54:58.850Z,6.52
2023-12-08T22:57:25.448Z,6.52
2023-12-08T22:59:52.140Z,6.56
2023-12-08T23:02:18.621Z,6.58
2023-12-08T23:04:45.202Z,6.59
2023-12-08T23:07:12.394Z,6.61
2023-12-08T23:09:39.022Z,6.62
2023-12-08T23:12:06.745Z,6.62
2023-12-08T23:14:33.337Z,6.63
2023-12-08T23:16:59.878Z,6.63
2023-12-08T23:19:26.738Z,6.62
2023-12-08T23:21:53.261Z,6.62
2023-12-08T23:24:20.328Z,6.61
2023-12-08T23:26:46.946Z,6.63
2023-12-08T23:29:13.596Z,6.63
2023-12-08T23:31:40.174Z,6.62
2023-12-08T23:34:07.294Z,6.61
2023-12-08T23:36:33.969Z,6.60
2023-12-08T23:39:02.716Z,6.60
2023-12-08T23:41:29.373Z,6.60
2023-12-08T23:43:56.107Z,6.58
2023-12-08T23:46:22.664Z,6.56
2023-12-08T23:48:50.970Z,6.52
2023-12-08T23:51:17.646Z,6.49
2023-12-08T23:53:44.915Z,6.49
2023-12-08T23:56:11.424Z,6.50
2023-12-08T23:58:37.970Z,6.50
